<?xml version="1.0" encoding="utf-8"?>
<gpx xmlns:xsi="http://www.w3.org/2001/XMLSchema-instance" xmlns:xsd="http://www.w3.org/2001/XMLSchema" version="1.1" creator="Shapelink.com" xmlns="http://www.topografix.com/GPX/1/1" xmlns:gpxtpx="http://www.garmin.com/xmlschemas/TrackPointExtension/v1">
  <metadata>
    <name>Gåing 0.61 km, 2012-03-22</name>
    <desc></desc>
    <author><name>Mikael Blom</name></author> 
    <time>2012-03-22T16:10:43Z</time>
  </metadata>
  <trk>
    <name>Gåing 0.61 km, 2012-03-22</name>
    <trkseg>
      <trkpt lat="59.978911" lon="17.7393035">
        <ele>35.7061</ele>
        <time>2012-03-22T16:10:43Z</time>
      </trkpt>
      <trkpt lat="59.9789397" lon="17.7392377">
        <ele>36.6675</ele>
        <time>2012-03-22T16:10:46Z</time>
      </trkpt>
      <trkpt lat="59.9790262" lon="17.7391736">
        <ele>33.7834</ele>
        <time>2012-03-22T16:10:54Z</time>
      </trkpt>
      <trkpt lat="59.9791916" lon="17.7391077">
        <ele>38.1094</ele>
        <time>2012-03-22T16:11:03Z</time>
      </trkpt>
      <trkpt lat="59.9793304" lon="17.7390329">
        <ele>41.474</ele>
        <time>2012-03-22T16:11:12Z</time>
      </trkpt>
      <trkpt lat="59.9794277" lon="17.7389507">
        <ele>40.0321</ele>
        <time>2012-03-22T16:11:20Z</time>
      </trkpt>
      <trkpt lat="59.9794762" lon="17.7389314">
        <ele>39.5513</ele>
        <time>2012-03-22T16:11:25Z</time>
      </trkpt>
      <trkpt lat="59.9796085" lon="17.7388444">
        <ele>40.0321</ele>
        <time>2012-03-22T16:11:33Z</time>
      </trkpt>
      <trkpt lat="59.9796338" lon="17.7388316">
        <ele>40.9934</ele>
        <time>2012-03-22T16:11:34Z</time>
      </trkpt>
      <trkpt lat="59.9797287" lon="17.7388134">
        <ele>40.0321</ele>
        <time>2012-03-22T16:11:41Z</time>
      </trkpt>
      <trkpt lat="59.9798097" lon="17.7387848">
        <ele>40.9934</ele>
        <time>2012-03-22T16:11:47Z</time>
      </trkpt>
      <trkpt lat="59.9799245" lon="17.7387549">
        <ele>42.916</ele>
        <time>2012-03-22T16:11:54Z</time>
      </trkpt>
      <trkpt lat="59.9800368" lon="17.738732">
        <ele>43.3966</ele>
        <time>2012-03-22T16:12:01Z</time>
      </trkpt>
      <trkpt lat="59.9801714" lon="17.7387622">
        <ele>46.2806</ele>
        <time>2012-03-22T16:12:08Z</time>
      </trkpt>
      <trkpt lat="59.9802389" lon="17.7387943">
        <ele>46.7612</ele>
        <time>2012-03-22T16:12:12Z</time>
      </trkpt>
      <trkpt lat="59.9802951" lon="17.7387773">
        <ele>49.6453</ele>
        <time>2012-03-22T16:12:16Z</time>
      </trkpt>
      <trkpt lat="59.9803775" lon="17.7387499">
        <ele>49.1646</ele>
        <time>2012-03-22T16:12:22Z</time>
      </trkpt>
      <trkpt lat="59.9805279" lon="17.7387004">
        <ele>50.6066</ele>
        <time>2012-03-22T16:12:30Z</time>
      </trkpt>
      <trkpt lat="59.9805978" lon="17.7386933">
        <ele>51.0872</ele>
        <time>2012-03-22T16:12:34Z</time>
      </trkpt>
      <trkpt lat="59.9807096" lon="17.7386447">
        <ele>54.4518</ele>
        <time>2012-03-22T16:12:40Z</time>
      </trkpt>
      <trkpt lat="59.9807466" lon="17.7386235">
        <ele>54.9324</ele>
        <time>2012-03-22T16:12:44Z</time>
      </trkpt>
      <trkpt lat="59.9808294" lon="17.7385733">
        <ele>55.8938</ele>
        <time>2012-03-22T16:12:50Z</time>
      </trkpt>
      <trkpt lat="59.9809579" lon="17.7385818">
        <ele>56.3745</ele>
        <time>2012-03-22T16:12:57Z</time>
      </trkpt>
      <trkpt lat="59.981077" lon="17.7384892">
        <ele>60.2197</ele>
        <time>2012-03-22T16:13:05Z</time>
      </trkpt>
      <trkpt lat="59.9811564" lon="17.7384792">
        <ele>58.2971</ele>
        <time>2012-03-22T16:13:11Z</time>
      </trkpt>
      <trkpt lat="59.9812448" lon="17.7384709">
        <ele>57.8165</ele>
        <time>2012-03-22T16:13:16Z</time>
      </trkpt>
      <trkpt lat="59.9813749" lon="17.7384773">
        <ele>58.2971</ele>
        <time>2012-03-22T16:13:22Z</time>
      </trkpt>
      <trkpt lat="59.9815417" lon="17.7384606">
        <ele>68.3909</ele>
        <time>2012-03-22T16:13:27Z</time>
      </trkpt>
      <trkpt lat="59.981638" lon="17.7384298">
        <ele>70.3135</ele>
        <time>2012-03-22T16:13:33Z</time>
      </trkpt>
      <trkpt lat="59.9817758" lon="17.7383688">
        <ele>75.1202</ele>
        <time>2012-03-22T16:13:39Z</time>
      </trkpt>
      <trkpt lat="59.9818053" lon="17.7383369">
        <ele>68.8716</ele>
        <time>2012-03-22T16:13:44Z</time>
      </trkpt>
      <trkpt lat="59.9818227" lon="17.7382787">
        <ele>60.7003</ele>
        <time>2012-03-22T16:13:50Z</time>
      </trkpt>
      <trkpt lat="59.9818517" lon="17.7382504">
        <ele>55.8938</ele>
        <time>2012-03-22T16:13:54Z</time>
      </trkpt>
      <trkpt lat="59.9818578" lon="17.7382396">
        <ele>55.4131</ele>
        <time>2012-03-22T16:13:55Z</time>
      </trkpt>
      <trkpt lat="59.9819064" lon="17.7382195">
        <ele>53.4905</ele>
        <time>2012-03-22T16:13:59Z</time>
      </trkpt>
      <trkpt lat="59.9819856" lon="17.7382214">
        <ele>56.3745</ele>
        <time>2012-03-22T16:14:04Z</time>
      </trkpt>
      <trkpt lat="59.9820377" lon="17.7381907">
        <ele>54.9324</ele>
        <time>2012-03-22T16:14:08Z</time>
      </trkpt>
      <trkpt lat="59.9820871" lon="17.7381795">
        <ele>55.4131</ele>
        <time>2012-03-22T16:14:11Z</time>
      </trkpt>
      <trkpt lat="59.9821564" lon="17.7381112">
        <ele>56.3745</ele>
        <time>2012-03-22T16:14:15Z</time>
      </trkpt>
      <trkpt lat="59.9822055" lon="17.7380798">
        <ele>54.9324</ele>
        <time>2012-03-22T16:14:18Z</time>
      </trkpt>
      <trkpt lat="59.9823632" lon="17.7380368">
        <ele>57.3358</ele>
        <time>2012-03-22T16:14:28Z</time>
      </trkpt>
      <trkpt lat="59.9824222" lon="17.7380003">
        <ele>59.2584</ele>
        <time>2012-03-22T16:14:31Z</time>
      </trkpt>
      <trkpt lat="59.9825704" lon="17.7380205">
        <ele>59.2584</ele>
        <time>2012-03-22T16:14:39Z</time>
      </trkpt>
      <trkpt lat="59.9827049" lon="17.7380562">
        <ele>62.6229</ele>
        <time>2012-03-22T16:14:45Z</time>
      </trkpt>
      <trkpt lat="59.9828101" lon="17.7380615">
        <ele>64.0651</ele>
        <time>2012-03-22T16:14:50Z</time>
      </trkpt>
      <trkpt lat="59.9829622" lon="17.7380852">
        <ele>66.949</ele>
        <time>2012-03-22T16:14:56Z</time>
      </trkpt>
      <trkpt lat="59.9831118" lon="17.7380392">
        <ele>71.2749</ele>
        <time>2012-03-22T16:15:01Z</time>
      </trkpt>
      <trkpt lat="59.9830972" lon="17.7380474">
        <ele>65.5071</ele>
        <time>2012-03-22T16:15:05Z</time>
      </trkpt>
      <trkpt lat="59.9831086" lon="17.7380848">
        <ele>58.2971</ele>
        <time>2012-03-22T16:15:12Z</time>
      </trkpt>
      <trkpt lat="59.9831662" lon="17.7380791">
        <ele>56.3745</ele>
        <time>2012-03-22T16:15:17Z</time>
      </trkpt>
      <trkpt lat="59.9831952" lon="17.7381069">
        <ele>56.8551</ele>
        <time>2012-03-22T16:15:19Z</time>
      </trkpt>
      <trkpt lat="59.9832832" lon="17.7381114">
        <ele>58.2971</ele>
        <time>2012-03-22T16:15:25Z</time>
      </trkpt>
      <trkpt lat="59.9834198" lon="17.7380752">
        <ele>60.2197</ele>
        <time>2012-03-22T16:15:30Z</time>
      </trkpt>
      <trkpt lat="59.9835359" lon="17.7380537">
        <ele>66.4683</ele>
        <time>2012-03-22T16:15:36Z</time>
      </trkpt>
      <trkpt lat="59.9836187" lon="17.7380128">
        <ele>63.5844</ele>
        <time>2012-03-22T16:15:42Z</time>
      </trkpt>
      <trkpt lat="59.9837323" lon="17.7379697">
        <ele>60.2197</ele>
        <time>2012-03-22T16:15:49Z</time>
      </trkpt>
      <trkpt lat="59.9837638" lon="17.7379467">
        <ele>58.2971</ele>
        <time>2012-03-22T16:15:52Z</time>
      </trkpt>
      <trkpt lat="59.9838446" lon="17.7379407">
        <ele>53.9712</ele>
        <time>2012-03-22T16:15:59Z</time>
      </trkpt>
      <trkpt lat="59.9838858" lon="17.7379282">
        <ele>52.0486</ele>
        <time>2012-03-22T16:16:01Z</time>
      </trkpt>
      <trkpt lat="59.9839165" lon="17.7379329">
        <ele>51.5679</ele>
        <time>2012-03-22T16:16:03Z</time>
      </trkpt>
      <trkpt lat="59.9839468" lon="17.7379171">
        <ele>51.5679</ele>
        <time>2012-03-22T16:16:05Z</time>
      </trkpt>
      <trkpt lat="59.9839914" lon="17.7379537">
        <ele>51.0872</ele>
        <time>2012-03-22T16:16:09Z</time>
      </trkpt>
      <trkpt lat="59.9841208" lon="17.737976">
        <ele>57.8165</ele>
        <time>2012-03-22T16:16:17Z</time>
      </trkpt>
      <trkpt lat="59.9841681" lon="17.7379696">
        <ele>59.7391</ele>
        <time>2012-03-22T16:16:19Z</time>
      </trkpt>
    </trkseg>
  </trk>
</gpx>